Time;durP1;ratioP1;P1;durP2;ratioP2;P2;SDS_P1;SDS_P2;PMS_P1;PMS_P2;Temp;Humidity;BMP_temperature;BMP_pressure;BME280_temperature;BME280_humidity;BME280_pressure;Samples;Min_cycle;Max_cycle;Signal;HPM_P1;HPM_P2
2022/12/02 00:00:23;;;;;;;12.15;4.42;;;;;;;-0.96;49.36;102190.05;1815683;78;21243;-88
2022/12/02 00:02:50;;;;;;;12.68;4.42;;;;;;;-0.98;49.36;102186.15;1815550;78;20844;-87
2022/12/02 00:05:28;;;;;;;10.45;5.85;;;;;;;-0.93;49.39;102188.81;1815525;78;21349;-87
2022/12/02 00:08:00;;;;;;;7.55;3.92;;;;;;;-0.88;49.44;102184.58;1815530;79;20908;-87
2022/12/02 00:10:32;;;;;;;11.15;4.12;;;;;;;-0.82;49.43;102185.06;1759781;79;20923;-88
2022/12/02 00:13:16;;;;;;;7.97;3.37;;;;;;;-0.78;49.33;102182.97;1815728;79;21491;-86
2022/12/02 00:15:44;;;;;;;3.62;2.30;;;;;;;-0.75;49.33;102176.59;1815599;79;20963;-86
2022/12/02 00:18:13;;;;;;;7.87;2.83;;;;;;;-0.71;49.22;102187.34;1815821;79;21229;-87
2022/12/02 00:20:41;;;;;;;3.70;2.45;;;;;;;-0.75;49.23;102182.59;1816067;79;20939;-87
2022/12/02 00:23:07;;;;;;;8.15;2.67;;;;;;;-0.76;49.21;102182.14;1816548;79;21357;-86
2022/12/02 00:25:34;;;;;;;4.60;2.02;;;;;;;-0.78;49.32;102178.67;1815834;79;21319;-86
2022/12/02 00:28:01;;;;;;;3.05;2.00;;;;;;;-0.78;49.24;102184.26;1815265;79;20967;-86
2022/12/02 00:30:28;;;;;;;6.28;2.77;;;;;;;-0.85;49.20;102185.46;1815414;78;20825;-87
2022/12/02 00:32:54;;;;;;;9.35;4.80;;;;;;;-0.90;49.46;102180.69;1815301;79;20963;-87
2022/12/02 00:35:29;;;;;;;7.40;2.90;;;;;;;-0.91;49.74;102178.97;1816487;79;20982;-87
2022/12/02 00:37:51;;;;;;;4.30;2.42;;;;;;;-0.90;49.73;102175.53;1815859;79;21206;-85
2022/12/02 00:40:18;;;;;;;5.45;3.40;;;;;;;-0.90;49.74;102175.97;1815740;78;20900;-89
2022/12/02 00:42:44;;;;;;;9.20;4.12;;;;;;;-0.93;49.69;102180.66;1820654;78;20856;-87
2022/12/02 00:47:56;;;;;;;6.40;2.65;;;;;;;-1.05;49.92;102175.34;1821595;78;20864;-87
2022/12/02 00:50:23;;;;;;;6.30;3.20;;;;;;;-1.12;50.32;102183.41;1821489;78;21436;-86
2022/12/02 00:52:50;;;;;;;6.72;2.85;;;;;;;-1.22;50.61;102179.00;1821123;78;20829;-87
2022/12/02 00:55:17;;;;;;;4.70;2.72;;;;;;;-1.28;50.74;102178.47;1820880;78;20880;-88
2022/12/02 00:57:44;;;;;;;8.70;3.00;;;;;;;-1.29;50.87;102181.91;1820796;78;20924;-85
2022/12/02 01:00:11;;;;;;;9.28;3.37;;;;;;;-1.30;51.08;102180.58;1820923;78;20880;-87
2022/12/02 01:02:38;;;;;;;7.50;3.37;;;;;;;-1.34;51.19;102176.23;1820692;78;21153;-87
2022/12/02 01:05:06;;;;;;;6.95;2.90;;;;;;;-1.38;51.30;102175.73;1820648;78;20924;-88
2022/12/02 01:07:32;;;;;;;4.50;2.80;;;;;;;-1.45;51.59;102174.78;1820914;78;20888;-85
2022/12/02 01:10:00;;;;;;;6.72;2.55;;;;;;;-1.49;51.67;102175.58;1820817;78;20884;-84
2022/12/02 01:12:27;;;;;;;7.17;2.80;;;;;;;-1.47;51.85;102168.75;1820714;78;20907;-88
2022/12/02 01:14:54;;;;;;;7.25;2.77;;;;;;;-1.46;51.84;102171.78;1821097;78;21099;-87
2022/12/02 01:17:20;;;;;;;9.55;3.50;;;;;;;-1.49;52.01;102172.61;1820854;78;20876;-86
2022/12/02 01:19:48;;;;;;;4.12;2.10;;;;;;;-1.54;52.09;102169.51;1820914;78;20939;-86
2022/12/02 01:22:14;;;;;;;7.83;3.52;;;;;;;-1.54;52.26;102172.08;1820837;78;20932;-86
2022/12/02 01:24:41;;;;;;;8.05;2.92;;;;;;;-1.57;52.36;102168.19;1820861;78;21389;-87
2022/12/02 01:27:07;;;;;;;6.55;3.20;;;;;;;-1.58;52.57;102170.30;1820816;78;21416;-86
2022/12/02 01:29:34;;;;;;;8.60;4.83;;;;;;;-1.60;52.51;102162.58;1820778;78;20880;-86
2022/12/02 01:32:01;;;;;;;8.38;3.95;;;;;;;-1.61;52.74;102161.27;1821788;78;21026;-87
2022/12/02 01:34:28;;;;;;;7.25;3.10;;;;;;;-1.65;52.92;102165.48;1822018;78;20876;-85
2022/12/02 01:36:55;;;;;;;4.87;3.47;;;;;;;-1.67;52.93;102165.87;1821111;78;20848;-87
2022/12/02 01:39:22;;;;;;;5.87;3.42;;;;;;;-1.70;53.04;102158.98;1821348;78;21186;-87
2022/12/02 01:41:48;;;;;;;8.90;3.52;;;;;;;-1.71;53.28;102162.84;1818523;78;20920;-87
2022/12/02 01:44:14;;;;;;;8.53;4.40;;;;;;;-1.76;53.28;102156.31;1814909;79;21334;-87
2022/12/02 01:46:41;;;;;;;4.55;3.20;;;;;;;-1.76;53.36;102158.88;1814879;79;20998;-85
2022/12/02 01:49:07;;;;;;;6.67;3.45;;;;;;;-1.75;53.37;102161.91;1814907;78;20877;-87
2022/12/02 01:51:34;;;;;;;4.85;3.00;;;;;;;-1.79;53.43;102157.56;1814971;78;21258;-86
2022/12/02 01:54:01;;;;;;;7.17;3.17;;;;;;;-1.86;53.55;102149.31;1814643;79;20919;-87
2022/12/02 01:56:27;;;;;;;6.95;3.67;;;;;;;-1.86;53.79;102158.31;1809947;79;20938;-88
2022/12/02 01:58:54;;;;;;;7.20;3.35;;;;;;;-1.90;53.70;102148.81;1757809;79;20900;-87
2022/12/02 02:01:30;;;;;;;5.58;2.95;;;;;;;-1.89;53.83;102155.27;1814876;79;21433;-88
2022/12/02 02:03:57;;;;;;;10.20;3.17;;;;;;;-1.85;53.83;102161.73;1814696;79;21247;-88
2022/12/02 02:06:24;;;;;;;5.08;2.87;;;;;;;-1.81;53.82;102162.23;1814751;78;20927;-87
2022/12/02 02:08:51;;;;;;;7.00;3.25;;;;;;;-1.77;53.87;102157.59;1814646;79;20873;-87
2022/12/02 02:11:18;;;;;;;5.17;2.47;;;;;;;-1.77;53.73;102166.17;1814665;78;20876;-83
2022/12/02 02:13:48;;;;;;;8.23;3.25;;;;;;;-1.75;53.87;102161.91;1814585;78;20902;-87
2022/12/02 02:16:15;;;;;;;6.50;2.85;;;;;;;-1.76;53.95;102155.45;1815056;79;21240;-87
2022/12/02 02:18:41;;;;;;;7.92;3.40;;;;;;;-1.82;54.05;102155.34;1814648;78;20916;-88
2022/12/02 02:21:12;;;;;;;5.92;2.83;;;;;;;-1.86;54.32;102160.02;1814753;79;20885;-86
2022/12/02 02:23:38;;;;;;;5.78;3.12;;;;;;;-1.86;54.30;102154.88;1814942;79;20927;-85
2022/12/02 02:26:05;;;;;;;7.55;3.05;;;;;;;-1.86;54.44;102143.31;1814966;78;20955;-86
2022/12/02 02:28:33;;;;;;;7.00;3.83;;;;;;;-1.86;54.53;102144.17;1815024;79;21145;-86
2022/12/02 02:31:00;;;;;;;6.60;3.22;;;;;;;-1.85;54.61;102144.59;1814743;78;20913;-88
2022/12/02 02:33:29;;;;;;;5.28;2.85;;;;;;;-1.85;54.63;102147.59;1814009;79;21337;-87
2022/12/02 02:35:56;;;;;;;4.92;3.30;;;;;;;-1.87;54.71;102142.42;1814822;79;20876;-87
2022/12/02 02:38:24;;;;;;;5.33;3.67;;;;;;;-1.86;54.71;102145.45;1814671;78;20983;-87
2022/12/02 02:40:53;;;;;;;5.15;2.98;;;;;;;-1.87;54.84;102142.42;1814639;79;21378;-89
2022/12/02 02:43:22;;;;;;;12.23;3.55;;;;;;;-1.91;54.87;102138.09;1814612;78;21389;-90
2022/12/02 02:45:49;;;;;;;6.25;2.90;;;;;;;-1.95;55.08;102136.31;1814767;79;20911;-87
2022/12/02 02:48:16;;;;;;;6.87;2.98;;;;;;;-1.95;55.18;102136.31;1814800;79;21397;-85
2022/12/02 02:50:45;;;;;;;4.37;2.50;;;;;;;-1.96;55.17;102132.00;1814683;78;20967;-86
2022/12/02 02:53:14;;;;;;;4.30;2.90;;;;;;;-1.96;55.22;102133.28;1814636;79;21154;-87
2022/12/02 02:55:41;;;;;;;5.45;3.12;;;;;;;-1.95;55.27;102135.03;1814731;78;21366;-88
2022/12/02 02:58:15;;;;;;;4.37;2.87;;;;;;;-1.95;55.25;102134.60;1814668;78;20837;-87
2022/12/02 03:00:50;;;;;;;13.03;3.45;;;;;;;-1.96;55.29;102138.42;1814728;79;20895;-88
2022/12/02 03:03:19;;;;;;;3.20;2.90;;;;;;;-1.97;55.43;102136.28;1784726;79;21418;-88
2022/12/02 03:05:46;;;;;;;8.83;3.37;;;;;;;-1.94;55.49;102135.45;1814578;79;21228;-87
2022/12/02 03:08:14;;;;;;;9.13;4.47;;;;;;;-1.93;55.67;102139.34;1815191;79;20935;-87
2022/12/02 03:10:41;;;;;;;5.08;3.10;;;;;;;-1.91;55.69;102143.23;1814805;78;21471;-87
2022/12/02 03:13:08;;;;;;;4.45;3.42;;;;;;;-1.95;55.70;102143.59;1783303;79;21029;-87
2022/12/02 03:15:35;;;;;;;8.80;3.80;;;;;;;-1.95;55.82;102147.88;1814850;79;20971;-86
2022/12/02 03:18:01;;;;;;;7.40;3.45;;;;;;;-1.96;55.93;102154.70;1814924;78;21150;-87
2022/12/02 03:20:28;;;;;;;8.05;3.55;;;;;;;-1.96;55.96;102149.56;1815575;78;20908;-87
2022/12/02 03:22:54;;;;;;;4.50;2.87;;;;;;;-1.96;56.01;102141.85;1816735;79;20928;-86
2022/12/02 03:25:21;;;;;;;5.30;2.98;;;;;;;-1.90;55.97;102149.67;1816464;79;20927;-85
2022/12/02 03:27:47;;;;;;;8.55;3.55;;;;;;;-1.87;56.11;102142.42;1815779;79;20872;-87
2022/12/02 03:30:14;;;;;;;5.92;3.35;;;;;;;-1.87;55.97;102139.84;1815546;78;21761;-84
2022/12/02 03:32:41;;;;;;;6.97;3.27;;;;;;;-1.87;56.01;102141.14;1815341;79;21384;-87
2022/12/02 03:35:08;;;;;;;5.08;2.45;;;;;;;-1.91;56.03;102144.09;1815360;79;20877;-87
2022/12/02 03:37:35;;;;;;;6.20;3.33;;;;;;;-1.93;56.05;102140.64;1815187;79;20892;-86
2022/12/02 03:40:01;;;;;;;4.35;3.25;;;;;;;-1.96;56.19;102144.42;1815251;79;20959;-87
2022/12/02 03:42:28;;;;;;;4.95;3.45;;;;;;;-1.96;56.27;102145.70;1817556;78;21101;-86
2022/12/02 03:44:54;;;;;;;5.60;3.30;;;;;;;-1.95;56.49;102149.17;1821395;78;20924;-85
2022/12/02 03:47:21;;;;;;;7.05;3.65;;;;;;;-1.95;56.45;102140.17;1820933;78;21461;-87
2022/12/02 03:49:48;;;;;;;9.40;4.03;;;;;;;-1.93;56.46;102147.48;1820771;78;21057;-86
2022/12/02 03:52:16;;;;;;;5.65;3.30;;;;;;;-1.94;56.28;102136.31;1820922;78;21290;-86
2022/12/02 03:54:43;;;;;;;8.38;4.67;;;;;;;-1.96;56.36;102140.99;1820680;78;21145;-87
2022/12/02 03:57:10;;;;;;;5.87;2.83;;;;;;;-1.97;56.36;102138.84;1820861;78;20977;-85
2022/12/02 03:59:36;;;;;;;10.23;3.65;;;;;;;-1.95;56.19;102139.74;1820760;78;21329;-86
2022/12/02 04:02:03;;;;;;;8.75;3.83;;;;;;;-1.97;56.29;102134.14;1820655;78;21464;-87
2022/12/02 04:04:29;;;;;;;8.88;3.50;;;;;;;-2.01;56.36;102139.64;1820682;78;20959;-86
2022/12/02 04:06:56;;;;;;;5.22;3.83;;;;;;;-2.03;56.46;102127.17;1820720;78;21144;-87
2022/12/02 04:09:25;;;;;;;9.48;4.50;;;;;;;-2.05;56.40;102132.70;1820612;78;21463;-87
2022/12/02 04:11:51;;;;;;;9.65;4.53;;;;;;;-2.04;56.52;102125.89;1820697;78;20986;-87
2022/12/02 07:51:12;;;;;;;8.05;4.67;;;;;;;0.19;49.44;102126.34;1764827;80;21850;-87
2022/12/02 07:53:39;;;;;;;15.75;5.75;;;;;;;0.29;49.25;102113.11;1726647;81;20916;-87
2022/12/02 07:56:07;;;;;;;13.00;5.58;;;;;;;0.39;49.50;102121.33;1725338;81;20952;-89
2022/12/02 07:58:34;;;;;;;9.78;5.55;;;;;;;0.54;49.19;102117.98;1726903;81;20991;-87
2022/12/02 08:01:00;;;;;;;13.22;6.00;;;;;;;0.70;49.14;102127.10;1727560;80;21118;-86
2022/12/02 08:03:27;;;;;;;9.18;5.50;;;;;;;0.84;49.05;102118.98;1727409;80;20935;-86
2022/12/02 08:05:54;;;;;;;14.45;5.62;;;;;;;0.99;48.84;102119.05;1727469;80;20956;-88
2022/12/02 08:08:20;;;;;;;11.80;4.72;;;;;;;1.09;48.45;102121.66;1725750;81;20964;-89
2022/12/02 08:10:47;;;;;;;14.33;5.20;;;;;;;1.12;48.33;102115.23;1725299;81;20928;-89
2022/12/02 08:13:13;;;;;;;7.60;3.50;;;;;;;1.16;48.48;102116.97;1727437;80;21083;-88
2022/12/02 08:15:40;;;;;;;13.80;4.97;;;;;;;1.20;48.34;102115.69;1726273;81;20999;-86
2022/12/02 08:18:06;;;;;;;12.78;4.72;;;;;;;1.24;48.44;102115.25;1725938;81;20979;-87
2022/12/02 08:20:34;;;;;;;15.38;4.42;;;;;;;1.27;48.51;102112.70;1725042;81;21026;-87
2022/12/02 08:23:00;;;;;;;11.15;4.40;;;;;;;1.31;48.56;102108.37;1725773;81;20940;-86
2022/12/02 08:25:27;;;;;;;8.28;3.98;;;;;;;1.38;48.61;102119.16;1724927;81;21249;-87
2022/12/02 08:27:53;;;;;;;9.28;4.28;;;;;;;1.48;48.71;102109.28;1724889;81;21011;-87
2022/12/02 08:30:20;;;;;;;12.33;4.55;;;;;;;1.60;48.87;102098.97;1724882;81;20999;-90
2022/12/02 08:32:47;;;;;;;13.32;4.75;;;;;;;1.75;48.47;102107.59;1725516;81;20920;-88
2022/12/02 08:35:14;;;;;;;15.72;6.42;;;;;;;1.87;48.33;102101.14;1725124;81;21007;-87
2022/12/02 08:37:40;;;;;;;12.35;5.35;;;;;;;2.02;48.11;102101.14;1725465;81;21382;-87
2022/12/02 08:40:09;;;;;;;15.20;5.95;;;;;;;2.12;47.92;102093.36;1724522;81;20943;-89
2022/12/02 08:42:35;;;;;;;8.68;3.95;;;;;;;2.18;48.02;102090.74;1724766;82;20896;-89
2022/12/02 08:45:26;;;;;;;8.95;4.28;;;;;;;2.24;47.90;102095.92;1726443;83;20932;-88
2022/12/02 08:48:11;;;;;;;10.88;4.35;;;;;;;2.26;47.85;102101.52;1757497;77;20919;-89
2022/12/02 08:50:39;;;;;;;11.05;4.65;;;;;;;2.28;48.01;102076.94;1757464;80;21150;-87
2022/12/02 08:53:06;;;;;;;15.72;4.30;;;;;;;2.31;48.04;102096.77;1757491;80;20928;-88
2022/12/02 08:55:33;;;;;;;13.15;4.60;;;;;;;2.37;47.99;102091.14;1756537;80;20944;-87
2022/12/02 08:57:59;;;;;;;10.88;5.12;;;;;;;2.42;48.17;102081.66;1756417;80;21042;-86
2022/12/02 09:00:26;;;;;;;12.40;5.28;;;;;;;2.48;47.94;102089.83;1756703;81;20959;-89
2022/12/02 09:02:52;;;;;;;11.50;5.33;;;;;;;2.52;48.03;102084.22;1756405;80;21597;-85
2022/12/02 09:05:19;;;;;;;8.90;4.42;;;;;;;2.57;48.01;102078.15;1756267;81;21441;-87
2022/12/02 09:07:45;;;;;;;11.10;5.17;;;;;;;2.63;48.03;102070.80;1756811;81;20983;-90
2022/12/02 09:10:12;;;;;;;8.48;4.83;;;;;;;2.65;48.13;102072.95;1756838;81;20939;-91
2022/12/02 09:12:40;;;;;;;10.80;3.77;;;;;;;2.68;48.02;102069.05;1756925;81;20987;-89
2022/12/02 09:15:09;;;;;;;9.70;4.80;;;;;;;2.72;48.03;102077.23;1757162;81;21101;-89
2022/12/02 09:17:36;;;;;;;10.18;5.33;;;;;;;2.71;48.16;102062.55;1756990;80;21461;-90
2022/12/02 09:20:06;;;;;;;14.18;6.92;;;;;;;2.69;48.24;102061.69;1757274;80;20931;-86
2022/12/02 09:22:33;;;;;;;10.18;3.85;;;;;;;2.69;48.38;102063.87;1756913;81;20876;-88
2022/12/02 09:24:59;;;;;;;8.08;3.67;;;;;;;2.64;48.56;102056.97;1757357;80;20944;-87
2022/12/02 09:27:26;;;;;;;7.15;3.37;;;;;;;2.61;48.76;102046.20;1757261;80;21169;-89
2022/12/02 09:29:53;;;;;;;8.95;3.67;;;;;;;2.59;48.98;102067.35;1757063;80;20892;-88
2022/12/02 09:32:20;;;;;;;8.48;3.98;;;;;;;2.53;49.25;102057.45;1757163;80;20995;-89
2022/12/02 09:34:47;;;;;;;14.05;5.85;;;;;;;2.51;49.41;102059.18;1757163;80;20971;-89
2022/12/02 09:37:14;;;;;;;25.88;10.20;;;;;;;2.49;49.60;102052.73;1757371;80;20908;-89
2022/12/02 09:39:40;;;;;;;21.05;8.75;;;;;;;2.51;49.78;102057.44;1757560;80;21114;-90
2022/12/02 09:42:07;;;;;;;20.90;6.33;;;;;;;2.54;49.88;102047.53;1758435;80;21007;-88
2022/12/02 09:44:34;;;;;;;10.53;5.75;;;;;;;2.59;50.06;102043.19;1761424;80;21456;-90
2022/12/02 09:47:00;;;;;;;13.15;6.33;;;;;;;2.63;50.05;102040.58;1756672;80;21533;-88
2022/12/02 09:49:29;;;;;;;11.97;5.28;;;;;;;2.68;50.15;102028.46;1757026;80;20931;-89
2022/12/02 09:51:58;;;;;;;13.20;4.83;;;;;;;2.76;50.22;102040.51;1756772;80;21299;-88
2022/12/02 09:54:27;;;;;;;13.30;5.42;;;;;;;2.80;50.11;102036.63;1756378;81;21055;-88
2022/12/02 09:56:53;;;;;;;8.68;4.40;;;;;;;2.81;50.17;102030.56;1756782;80;20928;-87
2022/12/02 09:59:21;;;;;;;19.42;5.90;;;;;;;2.84;50.33;102027.09;1756721;81;21381;-88
2022/12/02 10:01:48;;;;;;;14.43;5.28;;;;;;;2.85;50.30;102018.03;1757076;80;20999;-89
2022/12/02 10:04:21;;;;;;;9.83;4.90;;;;;;;2.85;50.37;102032.72;1756663;80;21228;-86
2022/12/02 10:06:48;;;;;;;12.07;4.12;;;;;;;2.83;50.44;102009.84;1756397;80;20943;-89
2022/12/02 10:09:20;;;;;;;15.83;5.40;;;;;;;2.82;50.52;102019.77;1756792;80;20902;-91
2022/12/02 10:11:47;;;;;;;16.23;6.45;;;;;;;2.82;50.66;102024.50;1756470;80;21057;-89
2022/12/02 10:14:14;;;;;;;10.98;5.22;;;;;;;2.84;50.64;102016.73;1757083;80;21330;-90
2022/12/02 10:16:41;;;;;;;8.38;4.60;;;;;;;2.86;50.59;102024.92;1757568;80;21148;-90
2022/12/02 10:19:13;;;;;;;8.25;4.00;;;;;;;2.90;50.41;102022.74;1757701;81;20940;-86
2022/12/02 10:21:41;;;;;;;8.15;4.22;;;;;;;2.94;50.43;102022.75;1736965;81;20979;-88
2022/12/02 10:24:08;;;;;;;10.80;3.92;;;;;;;2.96;50.31;102015.80;1756785;80;20912;-88
2022/12/02 10:26:49;;;;;;;8.53;4.20;;;;;;;3.00;50.14;102023.57;1757436;81;20892;-89
2022/12/02 10:29:29;;;;;;;9.35;3.50;;;;;;;3.07;50.02;102004.52;1756745;81;21160;-90
2022/12/02 10:32:03;;;;;;;8.98;4.22;;;;;;;3.13;49.78;102005.34;1753594;81;20896;-90
2022/12/02 10:34:33;;;;;;;7.87;4.62;;;;;;;3.15;49.86;102012.67;1756870;80;20868;-90
2022/12/02 10:37:23;;;;;;;7.55;3.20;;;;;;;3.19;49.75;102023.45;1756942;80;20970;-91
2022/12/02 10:40:07;;;;;;;6.00;3.02;;;;;;;3.19;49.50;102028.62;1745400;80;20940;-90
2022/12/02 10:42:35;;;;;;;16.27;3.20;;;;;;;3.16;49.63;102020.45;1756977;81;21688;-87
2022/12/02 10:45:22;;;;;;;8.98;3.90;;;;;;;3.13;49.56;102020.45;1756592;81;20896;-87
2022/12/02 10:47:56;;;;;;;7.95;3.62;;;;;;;3.04;49.72;102012.29;1758037;80;20947;-89
2022/12/02 10:50:23;;;;;;;6.65;3.15;;;;;;;2.98;49.87;102007.17;1734142;80;20979;-89
2022/12/02 10:52:54;;;;;;;9.68;4.10;;;;;;;2.96;50.04;102010.61;1750698;80;20936;-88
2022/12/02 10:55:21;;;;;;;14.90;4.08;;;;;;;2.98;50.27;102008.47;1741580;81;21932;-86
2022/12/02 10:57:49;;;;;;;8.60;4.05;;;;;;;3.04;50.11;102008.41;1741511;82;21331;-88
2022/12/02 11:00:22;;;;;;;10.90;3.40;;;;;;;3.08;50.09;102001.48;1741876;82;20960;-86
2022/12/02 11:02:56;;;;;;;6.80;3.70;;;;;;;3.09;50.15;101999.30;1742453;82;20897;-87
2022/12/02 11:05:31;;;;;;;9.93;3.70;;;;;;;3.08;50.06;102002.77;1741395;82;20893;-86
2022/12/02 11:08:08;;;;;;;9.48;3.80;;;;;;;3.08;50.20;102006.66;1741388;82;21105;-86
2022/12/02 11:10:44;;;;;;;10.15;4.15;;;;;;;3.09;50.15;102001.89;1741199;82;20874;-86
2022/12/02 11:13:17;;;;;;;;;;;;;;;3.11;50.27;102005.34;1744146;81;20964;-86
2022/12/02 11:15:47;;;;;;;6.00;3.72;;;;;;;3.17;50.32;102003.16;1741867;82;20401;-86
2022/12/02 11:18:31;;;;;;;10.13;3.92;;;;;;;3.19;50.27;102007.45;1741647;81;20924;-88
2022/12/02 11:21:10;;;;;;;7.17;3.57;;;;;;;3.22;50.14;102010.01;1741852;81;21073;-88
2022/12/02 11:23:39;;;;;;;10.80;3.35;;;;;;;3.22;50.06;102001.38;1741758;81;22144;-90
2022/12/02 11:26:12;;;;;;;10.30;4.05;;;;;;;3.22;50.46;102003.53;1741757;82;20905;-91
2022/12/02 11:28:48;;;;;;;4.95;3.25;;;;;;;3.29;50.27;102006.52;1741443;81;20945;-88
2022/12/02 11:31:24;;;;;;;12.82;3.70;;;;;;;3.37;49.96;102001.27;1740228;82;21311;-87
2022/12/02 11:34:00;;;;;;;11.80;4.35;;;;;;;3.42;49.76;101999.48;1739212;82;21109;-88
2022/12/02 11:36:26;;;;;;;9.30;3.70;;;;;;;3.45;49.84;101996.04;1737557;82;20944;-87
2022/12/02 11:39:00;;;;;;;9.98;3.77;;;;;;;3.48;49.77;101996.85;1739218;82;20897;-87
2022/12/02 11:41:29;;;;;;;6.47;3.37;;;;;;;3.50;49.97;101998.14;1739325;82;20925;-88
2022/12/02 11:44:11;;;;;;;8.98;3.90;;;;;;;3.51;49.70;101997.25;1738320;82;20905;-89
2022/12/02 11:46:45;;;;;;;9.28;4.22;;;;;;;3.49;49.70;101997.70;1717051;82;21258;-88
2022/12/02 11:49:36;;;;;;;7.22;4.25;;;;;;;3.53;49.77;102008.07;1740551;80;20858;-86
2022/12/02 11:52:11;;;;;;;10.30;4.37;;;;;;;3.56;49.75;102001.11;1740094;82;20899;-88
2022/12/02 11:54:42;;;;;;;10.23;4.78;;;;;;;3.60;49.45;102003.69;1739871;82;21131;-89
2022/12/02 11:59:44;;;;;;;10.93;4.80;;;;;;;3.66;49.49;102001.02;1858182;76;23321;-88
2022/12/02 12:02:22;;;;;;;10.60;4.67;;;;;;;3.65;49.63;102004.94;1826012;77;20900;-87
2022/12/02 12:05:04;;;;;;;13.18;5.05;;;;;;;3.69;49.36;102011.80;1824936;77;21031;-88
2022/12/02 12:07:47;;;;;;;17.50;4.87;;;;;;;3.68;49.08;101995.83;1825075;77;20962;-89
2022/12/02 12:10:33;;;;;;;13.65;5.85;;;;;;;3.68;48.86;102004.46;1825545;78;20935;-86
2022/12/02 12:13:21;;;;;;;12.58;5.12;;;;;;;3.68;48.82;102000.57;1820921;77;20955;-87
2022/12/02 12:15:59;;;;;;;9.85;5.08;;;;;;;3.69;48.81;102010.50;1825817;78;20880;-89
2022/12/02 12:18:44;;;;;;;16.07;5.70;;;;;;;3.67;48.70;102001.91;1825056;77;21226;-89
2022/12/02 12:21:14;;;;;;;8.90;4.47;;;;;;;3.63;48.39;102006.25;1825371;77;20946;-89
2022/12/02 12:23:43;;;;;;;12.65;5.20;;;;;;;3.59;48.29;102012.77;1823920;78;20891;-87
2022/12/02 12:26:31;;;;;;;15.95;6.75;;;;;;;3.50;48.30;102005.48;1823863;78;21400;-88
2022/12/02 12:29:04;;;;;;;14.18;5.50;;;;;;;3.49;48.27;102028.41;1804393;78;21158;-89
2022/12/02 12:31:31;;;;;;;17.27;6.42;;;;;;;3.48;48.21;102020.19;1823411;78;21420;-89
2022/12/02 12:36:57;;;;;;;14.13;6.22;;;;;;;3.53;47.99;102024.04;1689435;85;20917;-88
2022/12/02 12:39:26;;;;;;;12.50;5.37;;;;;;;3.50;47.98;102018.45;1660692;85;20864;-89
2022/12/02 12:41:53;;;;;;;15.20;5.47;;;;;;;3.48;48.20;102031.01;1654085;86;21035;-89
2022/12/02 12:44:21;;;;;;;12.03;5.80;;;;;;;3.43;48.12;102029.75;1653620;86;21151;-90
2022/12/02 12:46:49;;;;;;;10.63;6.05;;;;;;;3.41;48.08;102020.27;1653747;86;21422;-86
2022/12/02 12:49:16;;;;;;;12.15;5.87;;;;;;;3.43;48.11;102026.30;1653997;86;21401;-89
2022/12/02 12:51:43;;;;;;;10.98;5.30;;;;;;;3.42;47.88;102033.20;1654176;86;21008;-89
2022/12/02 12:54:09;;;;;;;14.38;5.33;;;;;;;3.35;47.87;102030.23;1654006;86;21008;-88
2022/12/02 12:56:36;;;;;;;11.85;4.40;;;;;;;3.31;47.90;102035.02;1653831;86;21071;-88
2022/12/02 12:59:04;;;;;;;9.70;5.40;;;;;;;3.26;47.98;102040.23;1653749;86;21019;-87
2022/12/02 13:01:31;;;;;;;12.15;4.83;;;;;;;3.27;48.21;102038.52;1654205;86;21367;-88
2022/12/02 13:03:57;;;;;;;12.25;5.25;;;;;;;3.30;48.14;102038.05;1653804;86;20953;-88
2022/12/02 13:06:24;;;;;;;11.03;4.78;;;;;;;3.29;48.31;102040.23;1654659;86;21008;-87
2022/12/02 13:08:51;;;;;;;15.50;4.92;;;;;;;3.26;48.37;102048.45;1654533;86;21087;-86
2022/12/02 13:11:17;;;;;;;11.18;6.35;;;;;;;3.22;48.39;102048.89;1653829;86;20964;-89
2022/12/02 13:13:44;;;;;;;11.55;5.83;;;;;;;3.20;48.48;102046.77;1653085;86;21063;-90
2022/12/02 13:16:12;;;;;;;15.43;6.12;;;;;;;3.18;48.26;102052.81;1653190;86;21030;-89
2022/12/02 13:18:38;;;;;;;17.35;6.50;;;;;;;3.18;48.43;102047.22;1652979;86;20976;-88
2022/12/02 13:21:06;;;;;;;17.60;6.17;;;;;;;3.20;48.31;102050.66;1653977;86;21112;-89
2022/12/02 13:23:32;;;;;;;12.98;6.95;;;;;;;3.21;48.08;102053.66;1653215;86;21038;-89
2022/12/02 13:26:01;;;;;;;16.30;6.60;;;;;;;3.20;48.11;102047.19;1654865;86;20928;-87
2022/12/02 13:28:27;;;;;;;11.75;5.83;;;;;;;3.20;48.08;102057.55;1653035;86;20896;-89
2022/12/02 13:30:54;;;;;;;11.60;6.15;;;;;;;3.16;47.94;102061.03;1654112;86;21019;-88
2022/12/02 13:33:22;;;;;;;9.95;6.55;;;;;;;3.15;47.96;102059.32;1652826;86;21259;-87
2022/12/02 13:35:48;;;;;;;13.60;6.37;;;;;;;3.13;48.14;102058.47;1653024;86;21058;-89
2022/12/02 13:38:15;;;;;;;18.07;6.37;;;;;;;3.13;48.06;102060.62;1653059;86;21008;-88
2022/12/02 13:40:42;;;;;;;9.33;5.50;;;;;;;3.14;47.97;102062.36;1653022;86;21007;-89
2022/12/02 13:43:09;;;;;;;9.43;5.45;;;;;;;3.14;47.98;102071.42;1653414;86;21129;-89
2022/12/02 13:45:35;;;;;;;15.32;5.78;;;;;;;3.16;47.93;102072.28;1653177;86;21140;-92
2022/12/02 13:48:04;;;;;;;10.15;5.58;;;;;;;3.15;47.88;102066.66;1653980;86;20979;-90
2022/12/02 13:50:30;;;;;;;11.33;6.25;;;;;;;3.15;47.92;102075.73;1655073;86;20932;-87
2022/12/02 13:52:57;;;;;;;14.80;6.58;;;;;;;3.16;48.02;102071.40;1655350;86;21098;-88
2022/12/02 13:55:25;;;;;;;12.10;5.25;;;;;;;3.18;48.10;102074.84;1655131;86;20991;-86
2022/12/02 13:57:52;;;;;;;16.97;7.42;;;;;;;3.17;47.93;102077.02;1655188;86;21222;-88
2022/12/02 14:00:19;;;;;;;13.53;8.13;;;;;;;3.18;47.94;102084.80;1655344;86;20934;-88
2022/12/02 14:02:45;;;;;;;11.15;6.33;;;;;;;3.15;47.94;102080.91;1655071;86;20956;-88
2022/12/02 14:05:12;;;;;;;12.68;6.35;;;;;;;3.15;47.94;102082.65;1650880;86;20960;-89
2022/12/02 14:07:39;;;;;;;13.22;5.37;;;;;;;3.16;47.86;102077.47;1654933;86;21007;-90
2022/12/02 14:10:07;;;;;;;12.88;5.45;;;;;;;3.16;47.87;102084.36;1655027;86;21127;-89
2022/12/02 14:12:34;;;;;;;15.13;6.08;;;;;;;3.15;47.97;102084.80;1654864;86;20959;-89
2022/12/02 14:15:01;;;;;;;13.15;5.10;;;;;;;3.15;47.92;102091.28;1654942;86;20833;-88
2022/12/02 14:17:28;;;;;;;12.63;6.00;;;;;;;3.16;47.79;102084.36;1654468;86;21004;-89
2022/12/02 14:19:55;;;;;;;10.68;6.08;;;;;;;3.15;47.66;102088.69;1655179;86;21371;-86
2022/12/02 14:22:21;;;;;;;17.32;6.47;;;;;;;3.14;47.77;102091.31;1654949;86;21235;-89
2022/12/02 14:24:48;;;;;;;10.98;5.37;;;;;;;3.13;47.77;102086.53;1654927;86;20995;-87
2022/12/02 14:27:14;;;;;;;11.22;5.47;;;;;;;3.14;47.78;102097.79;1655442;86;20933;-88
2022/12/02 14:29:41;;;;;;;11.08;5.87;;;;;;;3.16;47.83;102097.31;1653678;86;20932;-89
2022/12/02 14:32:08;;;;;;;11.08;5.40;;;;;;;3.15;47.79;102090.42;1655035;86;20979;-87
2022/12/02 14:34:34;;;;;;;13.75;6.80;;;;;;;3.16;47.82;102097.31;1654238;86;21115;-88
2022/12/02 14:37:01;;;;;;;17.07;6.90;;;;;;;3.16;47.80;102094.72;1655239;85;21453;-89
2022/12/02 14:39:27;;;;;;;10.63;6.47;;;;;;;3.14;47.56;102097.79;1656107;86;20851;-87
2022/12/02 14:41:53;;;;;;;14.13;5.85;;;;;;;3.11;47.43;102098.64;1677221;85;20998;-88
2022/12/02 14:44:20;;;;;;;14.58;7.78;;;;;;;3.07;47.49;102101.70;1655981;85;20938;-89
2022/12/02 14:46:46;;;;;;;14.68;8.23;;;;;;;3.05;47.50;102102.58;1677104;85;21774;-88
2022/12/02 14:49:13;;;;;;;17.67;6.30;;;;;;;3.02;47.47;102099.98;1653467;86;21040;-88
2022/12/02 14:51:39;;;;;;;14.13;8.43;;;;;;;3.01;47.47;102101.72;1677013;84;20911;-88
2022/12/02 14:54:06;;;;;;;11.85;6.12;;;;;;;3.00;47.28;102109.09;1677158;84;21064;-89
2022/12/02 14:56:33;;;;;;;9.73;6.12;;;;;;;2.99;47.02;102107.34;1655957;86;21049;-87
2022/12/02 14:58:59;;;;;;;12.40;5.70;;;;;;;2.95;46.84;102109.52;1677091;85;21257;-90
2022/12/02 16:18:05;;;;;;;11.97;5.83;;;;;;;1.73;46.19;102168.78;1687364;84;21032;-86
2022/12/02 16:20:32;;;;;;;13.53;6.03;;;;;;;1.72;46.31;102159.31;1688651;85;20905;-85
2022/12/02 16:22:59;;;;;;;14.50;5.75;;;;;;;1.72;46.48;102161.91;1688698;84;20917;-88
2022/12/02 16:25:26;;;;;;;16.23;5.10;;;;;;;1.74;46.26;102167.50;1688551;85;21139;-88
2022/12/02 16:27:53;;;;;;;10.58;5.83;;;;;;;1.69;46.37;102168.34;1689172;84;20992;-87
2022/12/02 16:30:20;;;;;;;12.30;5.80;;;;;;;1.63;46.67;102163.60;1689280;85;20947;-88
2022/12/02 16:32:47;;;;;;;16.48;7.20;;;;;;;1.62;46.84;102166.17;1689529;85;20976;-88
2022/12/02 16:35:14;;;;;;;19.40;6.05;;;;;;;1.62;46.98;102166.17;1689435;84;20996;-87